sensor_id;sensor_type;location;lat;lon;timestamp;pressure;altitude;pressure_sealevel;temperature;humidity
37200;BME280;23096;50.892;16.746;2023-02-13T00:02:09;101312.98;;;5.25;78.00
37200;BME280;23096;50.892;16.746;2023-02-13T00:04:34;101312.16;;;5.25;78.08
37200;BME280;23096;50.892;16.746;2023-02-13T00:07:00;101318.45;;;5.25;77.89
37200;BME280;23096;50.892;16.746;2023-02-13T00:09:25;101315.77;;;5.27;78.00
37200;BME280;23096;50.892;16.746;2023-02-13T00:11:51;101313.41;;;5.28;77.99
37200;BME280;23096;50.892;16.746;2023-02-13T00:14:16;101313.77;;;5.29;77.95
37200;BME280;23096;50.892;16.746;2023-02-13T00:16:41;101313.98;;;5.30;77.96
37200;BME280;23096;50.892;16.746;2023-02-13T00:19:07;101312.63;;;5.31;77.93
37200;BME280;23096;50.892;16.746;2023-02-13T00:21:33;101310.42;;;5.31;77.82
37200;BME280;23096;50.892;16.746;2023-02-13T00:23:58;101312.14;;;5.32;77.92
37200;BME280;23096;50.892;16.746;2023-02-13T00:26:24;101306.53;;;5.33;77.88
37200;BME280;23096;50.892;16.746;2023-02-13T00:28:49;101301.63;;;5.35;77.70
37200;BME280;23096;50.892;16.746;2023-02-13T00:31:15;101309.69;;;5.37;77.68
37200;BME280;23096;50.892;16.746;2023-02-13T00:33:42;101307.35;;;5.39;77.62
37200;BME280;23096;50.892;16.746;2023-02-13T00:36:10;101303.98;;;5.41;77.66
37200;BME280;23096;50.892;16.746;2023-02-13T00:38:36;101306.91;;;5.42;77.56
37200;BME280;23096;50.892;16.746;2023-02-13T00:41:02;101307.27;;;5.43;77.38
37200;BME280;23096;50.892;16.746;2023-02-13T00:43:28;101306.78;;;5.44;77.33
37200;BME280;23096;50.892;16.746;2023-02-13T00:45:55;101307.31;;;5.45;77.42
37200;BME280;23096;50.892;16.746;2023-02-13T00:48:23;101307.00;;;5.47;77.42
37200;BME280;23096;50.892;16.746;2023-02-13T00:50:48;101306.52;;;5.48;77.27
37200;BME280;23096;50.892;16.746;2023-02-13T00:53:13;101298.20;;;5.49;77.30
37200;BME280;23096;50.892;16.746;2023-02-13T00:55:39;101294.81;;;5.51;77.26
37200;BME280;23096;50.892;16.746;2023-02-13T00:58:05;101292.30;;;5.52;77.32
37200;BME280;23096;50.892;16.746;2023-02-13T01:00:31;101293.67;;;5.53;77.19
37200;BME280;23096;50.892;16.746;2023-02-13T01:02:56;101290.96;;;5.54;77.21
37200;BME280;23096;50.892;16.746;2023-02-13T01:05:22;101288.77;;;5.55;77.15
37200;BME280;23096;50.892;16.746;2023-02-13T01:07:47;101293.57;;;5.56;77.13
37200;BME280;23096;50.892;16.746;2023-02-13T01:10:12;101299.56;;;5.57;77.14
37200;BME280;23096;50.892;16.746;2023-02-13T01:12:38;101297.38;;;5.58;77.08
37200;BME280;23096;50.892;16.746;2023-02-13T01:15:06;101296.17;;;5.59;76.96
37200;BME280;23096;50.892;16.746;2023-02-13T01:17:31;101296.53;;;5.59;76.88
37200;BME280;23096;50.892;16.746;2023-02-13T01:19:57;101298.23;;;5.59;76.87
37200;BME280;23096;50.892;16.746;2023-02-13T01:22:22;101295.67;;;5.59;76.77
37200;BME280;23096;50.892;16.746;2023-02-13T01:24:47;101292.44;;;5.59;76.78
37200;BME280;23096;50.892;16.746;2023-02-13T01:27:15;101286.81;;;5.60;76.74
37200;BME280;23096;50.892;16.746;2023-02-13T01:29:40;101287.33;;;5.60;76.69
37200;BME280;23096;50.892;16.746;2023-02-13T01:32:06;101287.16;;;5.60;76.80
37200;BME280;23096;50.892;16.746;2023-02-13T01:34:32;101288.69;;;5.59;76.64
37200;BME280;23096;50.892;16.746;2023-02-13T01:36:58;101290.39;;;5.59;76.58
37200;BME280;23096;50.892;16.746;2023-02-13T01:39:23;101284.75;;;5.58;76.64
37200;BME280;23096;50.892;16.746;2023-02-13T01:41:49;101291.69;;;5.56;76.61
37200;BME280;23096;50.892;16.746;2023-02-13T01:46:58;101285.70;;;5.54;76.55
37200;BME280;23096;50.892;16.746;2023-02-13T01:49:24;101284.46;;;5.53;76.61
37200;BME280;23096;50.892;16.746;2023-02-13T01:51:51;101281.73;;;5.52;76.44
37200;BME280;23096;50.892;16.746;2023-02-13T01:54:19;101279.66;;;5.51;76.35
37200;BME280;23096;50.892;16.746;2023-02-13T01:56:50;101270.59;;;5.50;76.41
37200;BME280;23096;50.892;16.746;2023-02-13T01:59:19;101273.53;;;5.52;76.32
37200;BME280;23096;50.892;16.746;2023-02-13T02:01:45;101269.95;;;5.52;76.37
37200;BME280;23096;50.892;16.746;2023-02-13T02:04:12;101270.47;;;5.52;76.35
37200;BME280;23096;50.892;16.746;2023-02-13T02:06:45;101270.98;;;5.52;76.35
37200;BME280;23096;50.892;16.746;2023-02-13T02:09:22;101274.38;;;5.51;76.27
37200;BME280;23096;50.892;16.746;2023-02-13T02:11:52;101272.48;;;5.51;76.26
37200;BME280;23096;50.892;16.746;2023-02-13T02:14:22;101272.33;;;5.51;76.18
37200;BME280;23096;50.892;16.746;2023-02-13T02:16:47;101272.17;;;5.52;76.27
37200;BME280;23096;50.892;16.746;2023-02-13T02:19:24;101269.45;;;5.52;76.17
37200;BME280;23096;50.892;16.746;2023-02-13T02:24:30;101266.23;;;5.53;76.13
37200;BME280;23096;50.892;16.746;2023-02-13T02:47:30;101262.98;;;5.45;75.96
37200;BME280;23096;50.892;16.746;2023-02-13T02:58:05;101264.70;;;5.37;75.73
37200;BME280;23096;50.892;16.746;2023-02-13T03:00:53;101264.66;;;5.36;75.90
37200;BME280;23096;50.892;16.746;2023-02-13T03:03:38;101261.21;;;5.34;75.93
37200;BME280;23096;50.892;16.746;2023-02-13T03:07:05;101255.09;;;5.34;75.93
37200;BME280;23096;50.892;16.746;2023-02-13T03:09:13;101249.15;;;5.35;75.96
37200;BME280;23096;50.892;16.746;2023-02-13T03:11:58;101244.38;;;5.35;76.07
37200;BME280;23096;50.892;16.746;2023-02-13T03:14:43;101242.02;;;5.37;76.15
37200;BME280;23096;50.892;16.746;2023-02-13T03:17:12;101248.55;;;5.39;76.12
37200;BME280;23096;50.892;16.746;2023-02-13T03:28:08;101249.39;;;5.47;76.18
37200;BME280;23096;50.892;16.746;2023-02-13T03:33:58;101245.33;;;5.48;76.33
37200;BME280;23096;50.892;16.746;2023-02-13T03:36:33;101248.56;;;5.48;76.34
37200;BME280;23096;50.892;16.746;2023-02-13T03:41:49;101254.91;;;5.49;76.33
37200;BME280;23096;50.892;16.746;2023-02-13T03:44:33;101260.70;;;5.50;76.34
37200;BME280;23096;50.892;16.746;2023-02-13T03:47:02;101255.90;;;5.49;76.23
37200;BME280;23096;50.892;16.746;2023-02-13T03:49:32;101260.48;;;5.47;76.24
37200;BME280;23096;50.892;16.746;2023-02-13T03:52:21;101262.84;;;5.46;76.35
37200;BME280;23096;50.892;16.746;2023-02-13T03:54:49;101261.65;;;5.46;76.37
37200;BME280;23096;50.892;16.746;2023-02-13T03:57:36;101262.98;;;5.45;76.30
37200;BME280;23096;50.892;16.746;2023-02-13T04:00:21;101263.63;;;5.44;76.16
37200;BME280;23096;50.892;16.746;2023-02-13T04:05:27;101263.63;;;5.44;76.34
37200;BME280;23096;50.892;16.746;2023-02-13T04:07:53;101266.70;;;5.43;76.37
37200;BME280;23096;50.892;16.746;2023-02-13T04:10:19;101267.71;;;5.42;76.34
37200;BME280;23096;50.892;16.746;2023-02-13T04:12:48;101263.58;;;5.41;76.25
37200;BME280;23096;50.892;16.746;2023-02-13T04:15:30;101261.67;;;5.39;76.30
37200;BME280;23096;50.892;16.746;2023-02-13T04:18:02;101261.66;;;5.38;76.37
37200;BME280;23096;50.892;16.746;2023-02-13T04:20:30;101261.95;;;5.36;76.35
37200;BME280;23096;50.892;16.746;2023-02-13T04:22:55;101257.85;;;5.35;76.47
37200;BME280;23096;50.892;16.746;2023-02-13T04:25:21;101257.86;;;5.37;76.37
37200;BME280;23096;50.892;16.746;2023-02-13T04:27:47;101253.46;;;5.37;76.50
37200;BME280;23096;50.892;16.746;2023-02-13T04:30:12;101251.41;;;5.37;76.43
37200;BME280;23096;50.892;16.746;2023-02-13T04:32:38;101248.87;;;5.38;76.42
37200;BME280;23096;50.892;16.746;2023-02-13T04:35:03;101246.84;;;5.39;76.36
37200;BME280;23096;50.892;16.746;2023-02-13T04:37:29;101245.48;;;5.40;76.39
37200;BME280;23096;50.892;16.746;2023-02-13T04:39:54;101241.56;;;5.40;76.42
37200;BME280;23096;50.892;16.746;2023-02-13T04:42:20;101241.22;;;5.40;76.33
37200;BME280;23096;50.892;16.746;2023-02-13T04:44:45;101241.38;;;5.39;76.35
37200;BME280;23096;50.892;16.746;2023-02-13T04:47:10;101237.27;;;5.38;76.51
37200;BME280;23096;50.892;16.746;2023-02-13T04:49:36;101238.81;;;5.38;76.33
37200;BME280;23096;50.892;16.746;2023-02-13T04:52:01;101240.16;;;5.37;76.35
37200;BME280;23096;50.892;16.746;2023-02-13T04:54:27;101236.58;;;5.38;76.35
37200;BME280;23096;50.892;16.746;2023-02-13T04:56:52;101240.67;;;5.38;76.35
37200;BME280;23096;50.892;16.746;2023-02-13T04:59:18;101236.71;;;5.36;76.31
37200;BME280;23096;50.892;16.746;2023-02-13T05:01:43;101239.39;;;5.33;76.18
37200;BME280;23096;50.892;16.746;2023-02-13T05:04:09;101235.41;;;5.30;76.24
37200;BME280;23096;50.892;16.746;2023-02-13T05:06:35;101229.20;;;5.27;76.23
37200;BME280;23096;50.892;16.746;2023-02-13T05:09:02;101228.78;;;5.23;76.09
37200;BME280;23096;50.892;16.746;2023-02-13T05:11:28;101227.34;;;5.19;76.32
37200;BME280;23096;50.892;16.746;2023-02-13T05:13:55;101229.84;;;5.17;76.32
37200;BME280;23096;50.892;16.746;2023-02-13T05:16:20;101229.81;;;5.15;76.22
37200;BME280;23096;50.892;16.746;2023-02-13T05:18:45;101231.65;;;5.14;76.30
37200;BME280;23096;50.892;16.746;2023-02-13T05:21:11;101235.17;;;5.12;76.37
37200;BME280;23096;50.892;16.746;2023-02-13T05:23:55;101234.41;;;5.08;76.21
37200;BME280;23096;50.892;16.746;2023-02-13T05:26:20;101238.09;;;5.05;76.27
37200;BME280;23096;50.892;16.746;2023-02-13T05:28:46;101231.54;;;5.02;76.24
37200;BME280;23096;50.892;16.746;2023-02-13T05:31:30;101228.04;;;4.97;76.21
37200;BME280;23096;50.892;16.746;2023-02-13T05:33:55;101225.55;;;4.92;76.22
37200;BME280;23096;50.892;16.746;2023-02-13T05:36:21;101222.08;;;4.90;76.35
37200;BME280;23096;50.892;16.746;2023-02-13T05:38:46;101227.14;;;4.88;76.39
37200;BME280;23096;50.892;16.746;2023-02-13T05:41:11;101229.86;;;4.87;76.54
37200;BME280;23096;50.892;16.746;2023-02-13T05:43:37;101236.02;;;4.89;76.66
37200;BME280;23096;50.892;16.746;2023-02-13T05:46:07;101236.08;;;4.91;76.63
37200;BME280;23096;50.892;16.746;2023-02-13T05:48:33;101230.84;;;4.93;76.75
37200;BME280;23096;50.892;16.746;2023-02-13T05:50:58;101229.18;;;4.95;76.87
37200;BME280;23096;50.892;16.746;2023-02-13T05:53:24;101232.13;;;4.97;76.84
37200;BME280;23096;50.892;16.746;2023-02-13T05:55:49;101228.77;;;4.99;76.98
37200;BME280;23096;50.892;16.746;2023-02-13T05:58:18;101229.66;;;5.02;77.04
37200;BME280;23096;50.892;16.746;2023-02-13T06:00:44;101230.73;;;5.04;76.98
37200;BME280;23096;50.892;16.746;2023-02-13T06:03:09;101224.64;;;5.05;77.05
37200;BME280;23096;50.892;16.746;2023-02-13T06:05:35;101230.48;;;5.07;77.09
37200;BME280;23096;50.892;16.746;2023-02-13T06:08:00;101233.08;;;5.09;77.01
37200;BME280;23096;50.892;16.746;2023-02-13T06:10:25;101237.88;;;5.10;77.15
37200;BME280;23096;50.892;16.746;2023-02-13T06:12:51;101246.08;;;5.12;77.14
37200;BME280;23096;50.892;16.746;2023-02-13T06:15:16;101245.75;;;5.12;77.13
37200;BME280;23096;50.892;16.746;2023-02-13T06:17:42;101250.18;;;5.12;77.10
37200;BME280;23096;50.892;16.746;2023-02-13T06:20:07;101256.48;;;5.12;77.13
37200;BME280;23096;50.892;16.746;2023-02-13T06:22:33;101256.98;;;5.12;77.13
37200;BME280;23096;50.892;16.746;2023-02-13T06:24:58;101256.49;;;5.13;77.14
37200;BME280;23096;50.892;16.746;2023-02-13T06:27:24;101257.20;;;5.13;77.15
37200;BME280;23096;50.892;16.746;2023-02-13T06:29:53;101259.09;;;5.14;77.24
37200;BME280;23096;50.892;16.746;2023-02-13T06:32:18;101260.46;;;5.15;77.17
37200;BME280;23096;50.892;16.746;2023-02-13T06:34:44;101265.27;;;5.16;77.27
37200;BME280;23096;50.892;16.746;2023-02-13T06:37:09;101265.65;;;5.18;77.27
37200;BME280;23096;50.892;16.746;2023-02-13T06:39:34;101265.38;;;5.21;77.31
37200;BME280;23096;50.892;16.746;2023-02-13T06:42:00;101271.39;;;5.23;77.34
37200;BME280;23096;50.892;16.746;2023-02-13T06:44:25;101274.34;;;5.26;77.41
37200;BME280;23096;50.892;16.746;2023-02-13T06:46:50;101277.13;;;5.29;77.34
37200;BME280;23096;50.892;16.746;2023-02-13T06:49:16;101276.84;;;5.31;77.42
37200;BME280;23096;50.892;16.746;2023-02-13T06:51:41;101281.98;;;5.33;77.46
37200;BME280;23096;50.892;16.746;2023-02-13T06:54:07;101276.07;;;5.35;77.51
37200;BME280;23096;50.892;16.746;2023-02-13T06:56:32;101274.55;;;5.36;77.47
37200;BME280;23096;50.892;16.746;2023-02-13T06:58:57;101276.30;;;5.38;77.47
37200;BME280;23096;50.892;16.746;2023-02-13T07:01:23;101274.14;;;5.40;77.47
37200;BME280;23096;50.892;16.746;2023-02-13T07:03:49;101279.44;;;5.42;77.52
37200;BME280;23096;50.892;16.746;2023-02-13T07:06:18;101278.45;;;5.43;77.57
37200;BME280;23096;50.892;16.746;2023-02-13T07:08:44;101278.48;;;5.45;77.59
37200;BME280;23096;50.892;16.746;2023-02-13T07:11:15;101273.56;;;5.45;77.40
37200;BME280;23096;50.892;16.746;2023-02-13T07:13:41;101273.09;;;5.48;77.51
37200;BME280;23096;50.892;16.746;2023-02-13T07:16:06;101274.67;;;5.49;77.57
37200;BME280;23096;50.892;16.746;2023-02-13T07:18:32;101280.34;;;5.51;77.62
37200;BME280;23096;50.892;16.746;2023-02-13T07:20:57;101271.32;;;5.52;77.64
37200;BME280;23096;50.892;16.746;2023-02-13T07:23:23;101273.40;;;5.53;77.58
37200;BME280;23096;50.892;16.746;2023-02-13T07:25:48;101265.59;;;5.54;77.61
37200;BME280;23096;50.892;16.746;2023-02-13T07:28:13;101264.58;;;5.56;77.64
37200;BME280;23096;50.892;16.746;2023-02-13T07:30:39;101265.46;;;5.58;77.53
37200;BME280;23096;50.892;16.746;2023-02-13T07:33:04;101263.95;;;5.59;77.68
37200;BME280;23096;50.892;16.746;2023-02-13T07:35:30;101268.08;;;5.61;77.69
37200;BME280;23096;50.892;16.746;2023-02-13T07:37:55;101266.73;;;5.61;77.66
37200;BME280;23096;50.892;16.746;2023-02-13T07:40:21;101265.90;;;5.62;77.64
37200;BME280;23096;50.892;16.746;2023-02-13T07:42:46;101267.12;;;5.63;77.59
37200;BME280;23096;50.892;16.746;2023-02-13T07:45:12;101263.20;;;5.64;77.73
37200;BME280;23096;50.892;16.746;2023-02-13T07:47:39;101261.00;;;5.64;77.74
37200;BME280;23096;50.892;16.746;2023-02-13T07:50:05;101262.36;;;5.65;77.71
37200;BME280;23096;50.892;16.746;2023-02-13T07:52:30;101258.44;;;5.65;77.71
37200;BME280;23096;50.892;16.746;2023-02-13T07:54:57;101258.80;;;5.65;77.65
37200;BME280;23096;50.892;16.746;2023-02-13T07:57:22;101259.48;;;5.65;77.70
37200;BME280;23096;50.892;16.746;2023-02-13T07:59:48;101257.46;;;5.66;77.72
37200;BME280;23096;50.892;16.746;2023-02-13T08:02:14;101252.70;;;5.67;77.80
37200;BME280;23096;50.892;16.746;2023-02-13T08:04:39;101256.13;;;5.68;77.82
37200;BME280;23096;50.892;16.746;2023-02-13T08:07:05;101257.81;;;5.68;77.74
37200;BME280;23096;50.892;16.746;2023-02-13T08:09:30;101259.23;;;5.69;77.76
37200;BME280;23096;50.892;16.746;2023-02-13T08:12:14;101264.85;;;5.69;77.73
37200;BME280;23096;50.892;16.746;2023-02-13T08:14:40;101265.87;;;5.69;77.73
37200;BME280;23096;50.892;16.746;2023-02-13T08:17:05;101268.27;;;5.70;77.68
37200;BME280;23096;50.892;16.746;2023-02-13T08:19:31;101269.81;;;5.70;77.84
37200;BME280;23096;50.892;16.746;2023-02-13T08:21:56;101268.64;;;5.71;77.76
37200;BME280;23096;50.892;16.746;2023-02-13T08:24:22;101266.23;;;5.70;77.81
37200;BME280;23096;50.892;16.746;2023-02-13T08:26:47;101272.52;;;5.69;77.74
37200;BME280;23096;50.892;16.746;2023-02-13T08:29:13;101268.23;;;5.68;77.77
37200;BME280;23096;50.892;16.746;2023-02-13T08:31:38;101270.26;;;5.67;77.86
37200;BME280;23096;50.892;16.746;2023-02-13T08:34:04;101273.48;;;5.67;77.95
37200;BME280;23096;50.892;16.746;2023-02-13T08:36:29;101271.80;;;5.67;77.89
37200;BME280;23096;50.892;16.746;2023-02-13T08:38:55;101271.95;;;5.66;77.89
37200;BME280;23096;50.892;16.746;2023-02-13T08:41:20;101270.89;;;5.64;77.86
37200;BME280;23096;50.892;16.746;2023-02-13T08:43:47;101273.11;;;5.65;77.94
37200;BME280;23096;50.892;16.746;2023-02-13T08:46:13;101272.77;;;5.64;78.03
37200;BME280;23096;50.892;16.746;2023-02-13T08:48:38;101273.45;;;5.64;78.16
37200;BME280;23096;50.892;16.746;2023-02-13T08:51:07;101271.06;;;5.65;78.14
37200;BME280;23096;50.892;16.746;2023-02-13T08:53:34;101277.19;;;5.64;78.09
37200;BME280;23096;50.892;16.746;2023-02-13T08:55:59;101277.00;;;5.64;78.21
37200;BME280;23096;50.892;16.746;2023-02-13T08:58:25;101275.67;;;5.65;78.19
37200;BME280;23096;50.892;16.746;2023-02-13T09:00:50;101280.14;;;5.66;78.22
37200;BME280;23096;50.892;16.746;2023-02-13T09:03:16;101279.96;;;5.67;78.26
37200;BME280;23096;50.892;16.746;2023-02-13T09:05:41;101279.63;;;5.66;78.22
37200;BME280;23096;50.892;16.746;2023-02-13T09:11:09;101285.88;;;5.64;78.35
37200;BME280;23096;50.892;16.746;2023-02-13T09:13:35;101288.11;;;5.64;78.41
37200;BME280;23096;50.892;16.746;2023-02-13T09:16:05;101288.77;;;5.64;78.46
37200;BME280;23096;50.892;16.746;2023-02-13T09:18:30;101284.20;;;5.65;78.45
37200;BME280;23096;50.892;16.746;2023-02-13T09:21:14;101285.04;;;5.64;78.52
37200;BME280;23096;50.892;16.746;2023-02-13T09:23:40;101287.05;;;5.63;78.59
37200;BME280;23096;50.892;16.746;2023-02-13T09:26:06;101292.51;;;5.63;78.56
37200;BME280;23096;50.892;16.746;2023-02-13T09:28:32;101291.78;;;5.61;78.61
37200;BME280;23096;50.892;16.746;2023-02-13T09:30:58;101294.98;;;5.59;78.72
37200;BME280;23096;50.892;16.746;2023-02-13T09:33:24;101294.78;;;5.57;78.75
37200;BME280;23096;50.892;16.746;2023-02-13T09:35:49;101296.63;;;5.56;78.88
37200;BME280;23096;50.892;16.746;2023-02-13T09:38:15;101293.89;;;5.55;78.91
37200;BME280;23096;50.892;16.746;2023-02-13T09:43:25;101300.36;;;5.55;79.04
37200;BME280;23096;50.892;16.746;2023-02-13T09:45:51;101299.81;;;5.53;79.23
37200;BME280;23096;50.892;16.746;2023-02-13T09:48:25;101301.85;;;5.52;79.38
37200;BME280;23096;50.892;16.746;2023-02-13T09:50:53;101308.98;;;5.50;79.43
37200;BME280;23096;50.892;16.746;2023-02-13T09:53:22;101306.73;;;5.50;79.47
37200;BME280;23096;50.892;16.746;2023-02-13T09:58:43;101308.77;;;5.50;79.65
37200;BME280;23096;50.892;16.746;2023-02-13T10:06:46;101322.69;;;5.47;79.79
37200;BME280;23096;50.892;16.746;2023-02-13T10:17:19;101336.20;;;5.19;79.86
37200;BME280;23096;50.892;16.746;2023-02-13T10:19:53;101341.15;;;5.12;79.90
37200;BME280;23096;50.892;16.746;2023-02-13T10:22:20;101344.35;;;5.03;80.06
37200;BME280;23096;50.892;16.746;2023-02-13T10:24:49;101345.09;;;4.98;80.00
37200;BME280;23096;50.892;16.746;2023-02-13T10:27:36;101343.02;;;4.90;80.03
37200;BME280;23096;50.892;16.746;2023-02-13T10:30:05;101346.64;;;4.79;80.07
37200;BME280;23096;50.892;16.746;2023-02-13T10:35:14;101346.02;;;4.74;80.34
37200;BME280;23096;50.892;16.746;2023-02-13T10:37:40;101346.02;;;4.74;80.36
37200;BME280;23096;50.892;16.746;2023-02-13T10:40:08;101341.42;;;4.74;80.52
37200;BME280;23096;50.892;16.746;2023-02-13T10:45:15;101332.44;;;4.76;80.62
37200;BME280;23096;50.892;16.746;2023-02-13T10:47:49;101329.61;;;4.78;80.55
37200;BME280;23096;50.892;16.746;2023-02-13T10:56:23;101325.87;;;4.86;80.74
37200;BME280;23096;50.892;16.746;2023-02-13T11:03:26;101324.89;;;4.94;80.80
37200;BME280;23096;50.892;16.746;2023-02-13T11:05:52;101318.08;;;4.94;80.77
37200;BME280;23096;50.892;16.746;2023-02-13T11:08:22;101316.37;;;4.94;80.82
37200;BME280;23096;50.892;16.746;2023-02-13T11:10:48;101311.64;;;4.95;80.90
37200;BME280;23096;50.892;16.746;2023-02-13T11:13:15;101311.73;;;5.00;80.89
37200;BME280;23096;50.892;16.746;2023-02-13T11:15:41;101312.30;;;5.02;80.85
37200;BME280;23096;50.892;16.746;2023-02-13T11:18:13;101306.09;;;5.06;81.03
37200;BME280;23096;50.892;16.746;2023-02-13T11:20:42;101297.51;;;5.10;81.03
37200;BME280;23096;50.892;16.746;2023-02-13T11:23:14;101298.41;;;5.13;81.04
37200;BME280;23096;50.892;16.746;2023-02-13T11:25:41;101299.45;;;5.13;81.02
37200;BME280;23096;50.892;16.746;2023-02-13T11:28:18;101301.80;;;5.12;80.92
37200;BME280;23096;50.892;16.746;2023-02-13T11:30:45;101297.71;;;5.12;81.03
37200;BME280;23096;50.892;16.746;2023-02-13T11:35:42;101296.34;;;5.12;80.99
37200;BME280;23096;50.892;16.746;2023-02-13T11:40:45;101294.53;;;5.14;80.92
37200;BME280;23096;50.892;16.746;2023-02-13T11:45:58;101289.69;;;5.11;80.95
37200;BME280;23096;50.892;16.746;2023-02-13T11:48:24;101290.83;;;5.09;80.85
37200;BME280;23096;50.892;16.746;2023-02-13T11:50:50;101283.18;;;5.10;80.90
37200;BME280;23096;50.892;16.746;2023-02-13T11:53:17;101282.55;;;5.12;80.90
37200;BME280;23096;50.892;16.746;2023-02-13T11:58:45;101275.30;;;5.16;80.89
37200;BME280;23096;50.892;16.746;2023-02-13T12:01:25;101268.27;;;5.21;80.96
37200;BME280;23096;50.892;16.746;2023-02-13T12:03:56;101268.19;;;5.26;81.01
37200;BME280;23096;50.892;16.746;2023-02-13T12:06:22;101267.20;;;5.27;80.89
37200;BME280;23096;50.892;16.746;2023-02-13T12:08:48;101262.27;;;5.27;80.95
37200;BME280;23096;50.892;16.746;2023-02-13T12:11:21;101263.00;;;5.29;80.85
37200;BME280;23096;50.892;16.746;2023-02-13T12:13:48;101263.19;;;5.30;80.92
37200;BME280;23096;50.892;16.746;2023-02-13T12:18:41;101262.27;;;5.36;81.06
37200;BME280;23096;50.892;16.746;2023-02-13T12:26:17;101268.53;;;5.41;80.91
37200;BME280;23096;50.892;16.746;2023-02-13T12:34:08;101268.52;;;5.49;80.96
37200;BME280;23096;50.892;16.746;2023-02-13T12:47:08;101261.50;;;5.47;80.75
37200;BME280;23096;50.892;16.746;2023-02-13T12:57:02;101259.21;;;5.44;80.55
37200;BME280;23096;50.892;16.746;2023-02-13T13:09:50;101241.80;;;5.34;80.43
37200;BME280;23096;50.892;16.746;2023-02-13T13:15:06;101239.56;;;5.34;80.36
37200;BME280;23096;50.892;16.746;2023-02-13T13:25:48;101248.69;;;5.22;80.39
37200;BME280;23096;50.892;16.746;2023-02-13T13:28:20;101249.83;;;5.19;80.25
37200;BME280;23096;50.892;16.746;2023-02-13T13:30:46;101252.33;;;5.16;80.33
37200;BME280;23096;50.892;16.746;2023-02-13T13:35:38;101251.98;;;5.16;80.22
37200;BME280;23096;50.892;16.746;2023-02-13T13:38:11;101253.66;;;5.15;80.22
37200;BME280;23096;50.892;16.746;2023-02-13T13:40:41;101250.95;;;5.16;80.29
37200;BME280;23096;50.892;16.746;2023-02-13T13:48:35;101266.20;;;5.20;80.20
37200;BME280;23096;50.892;16.746;2023-02-13T13:51:08;101269.25;;;5.19;80.23
37200;BME280;23096;50.892;16.746;2023-02-13T13:53:34;101269.20;;;5.17;80.14
37200;BME280;23096;50.892;16.746;2023-02-13T13:56:03;101272.41;;;5.16;80.21
37200;BME280;23096;50.892;16.746;2023-02-13T14:03:44;101269.96;;;5.13;80.04
37200;BME280;23096;50.892;16.746;2023-02-13T14:06:11;101264.46;;;5.11;80.13
37200;BME280;23096;50.892;16.746;2023-02-13T14:13:50;101243.37;;;5.12;80.27
37200;BME280;23096;50.892;16.746;2023-02-13T14:18:59;101238.08;;;5.12;80.32
37200;BME280;23096;50.892;16.746;2023-02-13T14:21:25;101233.66;;;5.12;80.35
37200;BME280;23096;50.892;16.746;2023-02-13T14:23:51;101231.48;;;5.14;80.40
37200;BME280;23096;50.892;16.746;2023-02-13T14:26:27;101235.77;;;5.16;80.39
37200;BME280;23096;50.892;16.746;2023-02-13T14:28:58;101236.63;;;5.16;80.41
37200;BME280;23096;50.892;16.746;2023-02-13T14:33:58;101232.81;;;5.21;80.44
37200;BME280;23096;50.892;16.746;2023-02-13T14:36:29;101231.66;;;5.22;80.34
37200;BME280;23096;50.892;16.746;2023-02-13T14:39:39;101228.09;;;5.23;80.34
37200;BME280;23096;50.892;16.746;2023-02-13T14:46:46;101218.77;;;5.25;80.37
37200;BME280;23096;50.892;16.746;2023-02-13T14:49:18;101213.86;;;5.27;80.28
37200;BME280;23096;50.892;16.746;2023-02-13T14:51:48;101210.66;;;5.28;80.16
37200;BME280;23096;50.892;16.746;2023-02-13T14:57:06;101204.89;;;5.30;80.28
37200;BME280;23096;50.892;16.746;2023-02-13T14:59:37;101202.67;;;5.30;80.21
37200;BME280;23096;50.892;16.746;2023-02-13T15:04:46;101199.80;;;5.31;80.26
37200;BME280;23096;50.892;16.746;2023-02-13T15:07:14;101193.17;;;5.31;80.16
37200;BME280;23096;50.892;16.746;2023-02-13T15:09:40;101188.07;;;5.32;80.16
37200;BME280;23096;50.892;16.746;2023-02-13T15:15:23;101171.88;;;5.32;80.09
37200;BME280;23096;50.892;16.746;2023-02-13T15:17:49;101161.64;;;5.31;80.18
37200;BME280;23096;50.892;16.746;2023-02-13T15:22:46;101158.89;;;5.30;80.04
37200;BME280;23096;50.892;16.746;2023-02-13T15:27:56;101154.58;;;5.28;80.11
37200;BME280;23096;50.892;16.746;2023-02-13T15:33:16;101156.23;;;5.26;79.97
37200;BME280;23096;50.892;16.746;2023-02-13T15:35:43;101152.11;;;5.23;80.00
37200;BME280;23096;50.892;16.746;2023-02-13T15:38:29;101153.09;;;5.21;80.02
37200;BME280;23096;50.892;16.746;2023-02-13T15:40:59;101156.63;;;5.19;80.01
37200;BME280;23096;50.892;16.746;2023-02-13T15:45:59;101154.67;;;5.15;80.03
37200;BME280;23096;50.892;16.746;2023-02-13T15:48:25;101161.81;;;5.15;79.98
37200;BME280;23096;50.892;16.746;2023-02-13T15:50:53;101163.82;;;5.13;79.90
37200;BME280;23096;50.892;16.746;2023-02-13T15:53:18;101164.34;;;5.14;80.03
37200;BME280;23096;50.892;16.746;2023-02-13T15:55:54;101165.17;;;5.13;80.04
37200;BME280;23096;50.892;16.746;2023-02-13T15:58:26;101166.17;;;5.12;79.91
37200;BME280;23096;50.892;16.746;2023-02-13T16:00:53;101162.88;;;5.08;80.07
37200;BME280;23096;50.892;16.746;2023-02-13T16:03:19;101165.10;;;5.09;79.96
37200;BME280;23096;50.892;16.746;2023-02-13T16:05:45;101161.00;;;5.09;79.84
37200;BME280;23096;50.892;16.746;2023-02-13T16:13:39;101150.61;;;5.09;79.87
37200;BME280;23096;50.892;16.746;2023-02-13T16:16:08;101141.54;;;5.06;79.90
37200;BME280;23096;50.892;16.746;2023-02-13T16:18:34;101138.45;;;5.05;79.92
37200;BME280;23096;50.892;16.746;2023-02-13T16:21:00;101141.69;;;5.05;80.04